sensor_id;sensor_type;location;lat;lon;timestamp;P1;durP1;ratioP1;P2;durP2;ratioP2
40252;SDS011;25972;51.854;4.534;2023-09-30T00:01:40;13.10;;;6.03;;
40252;SDS011;25972;51.854;4.534;2023-09-30T00:04:06;11.85;;;6.00;;
40252;SDS011;25972;51.854;4.534;2023-09-30T00:06:32;12.57;;;6.03;;
40252;SDS011;25972;51.854;4.534;2023-09-30T00:08:58;13.95;;;5.85;;
40252;SDS011;25972;51.854;4.534;2023-09-30T00:11:24;12.80;;;5.63;;
40252;SDS011;25972;51.854;4.534;2023-09-30T00:13:50;12.50;;;5.70;;
40252;SDS011;25972;51.854;4.534;2023-09-30T00:16:16;14.02;;;6.15;;
40252;SDS011;25972;51.854;4.534;2023-09-30T00:18:44;9.35;;;5.80;;
40252;SDS011;25972;51.854;4.534;2023-09-30T00:21:11;11.88;;;5.45;;
40252;SDS011;25972;51.854;4.534;2023-09-30T00:23:37;10.45;;;5.45;;
40252;SDS011;25972;51.854;4.534;2023-09-30T00:26:03;12.07;;;5.47;;
40252;SDS011;25972;51.854;4.534;2023-09-30T00:28:30;12.57;;;5.55;;
40252;SDS011;25972;51.854;4.534;2023-09-30T00:30:56;8.23;;;5.22;;
40252;SDS011;25972;51.854;4.534;2023-09-30T00:33:22;13.30;;;5.38;;
40252;SDS011;25972;51.854;4.534;2023-09-30T00:35:50;11.45;;;5.55;;
40252;SDS011;25972;51.854;4.534;2023-09-30T00:38:16;11.25;;;5.45;;
40252;SDS011;25972;51.854;4.534;2023-09-30T00:40:46;11.98;;;5.38;;
40252;SDS011;25972;51.854;4.534;2023-09-30T00:43:17;10.38;;;5.18;;
40252;SDS011;25972;51.854;4.534;2023-09-30T00:45:43;12.38;;;5.25;;
40252;SDS011;25972;51.854;4.534;2023-09-30T00:48:09;11.77;;;5.90;;
40252;SDS011;25972;51.854;4.534;2023-09-30T00:50:36;11.38;;;5.45;;
40252;SDS011;25972;51.854;4.534;2023-09-30T00:53:04;10.10;;;5.20;;
40252;SDS011;25972;51.854;4.534;2023-09-30T00:55:30;14.38;;;6.15;;
40252;SDS011;25972;51.854;4.534;2023-09-30T00:57:56;10.75;;;5.50;;
40252;SDS011;25972;51.854;4.534;2023-09-30T01:00:22;12.55;;;5.88;;
40252;SDS011;25972;51.854;4.534;2023-09-30T01:02:50;11.13;;;5.18;;
40252;SDS011;25972;51.854;4.534;2023-09-30T01:05:18;14.98;;;5.18;;
40252;SDS011;25972;51.854;4.534;2023-09-30T01:07:46;13.57;;;5.43;;
40252;SDS011;25972;51.854;4.534;2023-09-30T01:10:13;11.75;;;5.68;;
40252;SDS011;25972;51.854;4.534;2023-09-30T01:12:40;9.98;;;5.22;;
40252;SDS011;25972;51.854;4.534;2023-09-30T01:15:06;15.93;;;5.70;;
40252;SDS011;25972;51.854;4.534;2023-09-30T01:17:32;12.07;;;5.63;;
40252;SDS011;25972;51.854;4.534;2023-09-30T01:19:59;11.63;;;5.50;;
40252;SDS011;25972;51.854;4.534;2023-09-30T01:22:28;11.77;;;5.40;;
40252;SDS011;25972;51.854;4.534;2023-09-30T01:24:56;9.93;;;5.82;;
40252;SDS011;25972;51.854;4.534;2023-09-30T01:27:22;14.13;;;5.88;;
40252;SDS011;25972;51.854;4.534;2023-09-30T01:29:49;11.57;;;5.85;;
40252;SDS011;25972;51.854;4.534;2023-09-30T01:32:15;15.05;;;5.50;;
40252;SDS011;25972;51.854;4.534;2023-09-30T01:34:43;17.75;;;6.40;;
40252;SDS011;25972;51.854;4.534;2023-09-30T01:37:09;15.07;;;6.35;;
40252;SDS011;25972;51.854;4.534;2023-09-30T01:39:36;12.02;;;5.95;;
40252;SDS011;25972;51.854;4.534;2023-09-30T01:42:02;13.60;;;5.80;;
40252;SDS011;25972;51.854;4.534;2023-09-30T01:44:32;16.25;;;6.57;;
40252;SDS011;25972;51.854;4.534;2023-09-30T01:46:58;13.40;;;6.07;;
40252;SDS011;25972;51.854;4.534;2023-09-30T01:49:24;13.50;;;6.57;;
40252;SDS011;25972;51.854;4.534;2023-09-30T01:51:51;11.95;;;6.32;;
40252;SDS011;25972;51.854;4.534;2023-09-30T01:54:17;14.07;;;6.03;;
40252;SDS011;25972;51.854;4.534;2023-09-30T01:56:45;15.45;;;6.45;;
40252;SDS011;25972;51.854;4.534;2023-09-30T01:59:11;16.92;;;6.72;;
40252;SDS011;25972;51.854;4.534;2023-09-30T02:01:37;15.88;;;6.97;;
40252;SDS011;25972;51.854;4.534;2023-09-30T02:04:03;14.50;;;7.45;;
40252;SDS011;25972;51.854;4.534;2023-09-30T02:06:31;13.23;;;6.78;;
40252;SDS011;25972;51.854;4.534;2023-09-30T02:08:57;11.82;;;6.43;;
40252;SDS011;25972;51.854;4.534;2023-09-30T02:11:23;17.40;;;7.55;;
40252;SDS011;25972;51.854;4.534;2023-09-30T02:13:51;12.70;;;6.95;;
40252;SDS011;25972;51.854;4.534;2023-09-30T02:16:17;13.13;;;7.05;;
40252;SDS011;25972;51.854;4.534;2023-09-30T02:18:43;13.05;;;6.82;;
40252;SDS011;25972;51.854;4.534;2023-09-30T02:21:16;12.93;;;6.75;;
40252;SDS011;25972;51.854;4.534;2023-09-30T02:23:42;15.10;;;6.72;;
40252;SDS011;25972;51.854;4.534;2023-09-30T02:26:13;13.60;;;6.93;;
40252;SDS011;25972;51.854;4.534;2023-09-30T02:28:39;13.52;;;6.60;;
40252;SDS011;25972;51.854;4.534;2023-09-30T02:31:07;14.43;;;7.20;;
40252;SDS011;25972;51.854;4.534;2023-09-30T02:33:33;14.02;;;7.22;;
40252;SDS011;25972;51.854;4.534;2023-09-30T02:36:06;16.38;;;7.90;;
40252;SDS011;25972;51.854;4.534;2023-09-30T02:38:33;13.05;;;6.65;;
40252;SDS011;25972;51.854;4.534;2023-09-30T02:41:01;12.70;;;6.95;;
40252;SDS011;25972;51.854;4.534;2023-09-30T02:43:28;18.98;;;7.60;;
40252;SDS011;25972;51.854;4.534;2023-09-30T02:45:55;18.38;;;7.53;;
40252;SDS011;25972;51.854;4.534;2023-09-30T02:48:22;16.20;;;8.20;;
40252;SDS011;25972;51.854;4.534;2023-09-30T02:50:48;15.55;;;8.20;;
40252;SDS011;25972;51.854;4.534;2023-09-30T02:53:14;17.08;;;7.88;;
40252;SDS011;25972;51.854;4.534;2023-09-30T02:55:40;17.13;;;8.05;;
40252;SDS011;25972;51.854;4.534;2023-09-30T02:58:09;15.93;;;8.05;;
40252;SDS011;25972;51.854;4.534;2023-09-30T03:00:37;17.08;;;7.40;;
40252;SDS011;25972;51.854;4.534;2023-09-30T03:03:03;15.52;;;7.88;;
40252;SDS011;25972;51.854;4.534;2023-09-30T03:05:31;18.08;;;8.25;;
40252;SDS011;25972;51.854;4.534;2023-09-30T03:07:58;16.98;;;7.85;;
40252;SDS011;25972;51.854;4.534;2023-09-30T03:10:26;20.45;;;8.40;;
40252;SDS011;25972;51.854;4.534;2023-09-30T03:12:52;16.67;;;7.72;;
40252;SDS011;25972;51.854;4.534;2023-09-30T03:15:18;17.25;;;7.90;;
40252;SDS011;25972;51.854;4.534;2023-09-30T03:17:44;16.55;;;7.53;;
40252;SDS011;25972;51.854;4.534;2023-09-30T03:20:10;17.27;;;8.55;;
40252;SDS011;25972;51.854;4.534;2023-09-30T03:22:39;19.63;;;8.02;;
40252;SDS011;25972;51.854;4.534;2023-09-30T03:25:06;13.98;;;7.55;;
40252;SDS011;25972;51.854;4.534;2023-09-30T03:27:33;14.52;;;8.02;;
40252;SDS011;25972;51.854;4.534;2023-09-30T03:29:59;17.58;;;8.43;;
40252;SDS011;25972;51.854;4.534;2023-09-30T03:32:26;17.45;;;8.38;;
40252;SDS011;25972;51.854;4.534;2023-09-30T03:34:53;19.55;;;9.18;;
40252;SDS011;25972;51.854;4.534;2023-09-30T03:37:19;16.58;;;9.15;;
40252;SDS011;25972;51.854;4.534;2023-09-30T03:39:46;18.35;;;8.82;;
40252;SDS011;25972;51.854;4.534;2023-09-30T03:42:14;16.77;;;8.90;;
40252;SDS011;25972;51.854;4.534;2023-09-30T03:44:41;16.55;;;8.85;;
40252;SDS011;25972;51.854;4.534;2023-09-30T03:47:07;20.90;;;9.02;;
40252;SDS011;25972;51.854;4.534;2023-09-30T03:49:35;19.40;;;9.63;;
40252;SDS011;25972;51.854;4.534;2023-09-30T03:52:03;19.55;;;10.52;;
40252;SDS011;25972;51.854;4.534;2023-09-30T03:54:29;19.75;;;10.07;;
40252;SDS011;25972;51.854;4.534;2023-09-30T03:56:58;19.88;;;9.43;;
40252;SDS011;25972;51.854;4.534;2023-09-30T03:59:25;19.25;;;10.18;;
40252;SDS011;25972;51.854;4.534;2023-09-30T04:01:51;18.70;;;10.45;;
40252;SDS011;25972;51.854;4.534;2023-09-30T04:04:18;17.98;;;9.65;;
40252;SDS011;25972;51.854;4.534;2023-09-30T04:06:44;24.33;;;10.52;;
40252;SDS011;25972;51.854;4.534;2023-09-30T04:09:12;18.98;;;9.57;;
40252;SDS011;25972;51.854;4.534;2023-09-30T04:11:38;20.95;;;10.10;;
40252;SDS011;25972;51.854;4.534;2023-09-30T04:14:06;22.13;;;10.48;;
40252;SDS011;25972;51.854;4.534;2023-09-30T04:16:33;19.38;;;9.93;;
40252;SDS011;25972;51.854;4.534;2023-09-30T04:18:59;18.80;;;9.63;;
40252;SDS011;25972;51.854;4.534;2023-09-30T04:21:25;19.02;;;9.55;;
40252;SDS011;25972;51.854;4.534;2023-09-30T04:23:53;18.65;;;9.60;;
40252;SDS011;25972;51.854;4.534;2023-09-30T04:26:19;19.23;;;9.80;;
40252;SDS011;25972;51.854;4.534;2023-09-30T04:28:45;25.00;;;9.82;;
40252;SDS011;25972;51.854;4.534;2023-09-30T04:31:13;22.30;;;10.05;;
40252;SDS011;25972;51.854;4.534;2023-09-30T04:33:39;16.05;;;9.80;;
40252;SDS011;25972;51.854;4.534;2023-09-30T04:36:05;18.85;;;10.32;;
40252;SDS011;25972;51.854;4.534;2023-09-30T04:38:34;18.65;;;10.20;;
40252;SDS011;25972;51.854;4.534;2023-09-30T04:41:02;18.13;;;10.02;;
40252;SDS011;25972;51.854;4.534;2023-09-30T04:43:28;18.13;;;9.95;;
40252;SDS011;25972;51.854;4.534;2023-09-30T04:45:55;20.98;;;10.07;;
40252;SDS011;25972;51.854;4.534;2023-09-30T04:48:23;22.45;;;10.18;;
40252;SDS011;25972;51.854;4.534;2023-09-30T04:50:49;17.83;;;9.80;;
40252;SDS011;25972;51.854;4.534;2023-09-30T04:53:17;19.73;;;10.20;;
40252;SDS011;25972;51.854;4.534;2023-09-30T04:55:43;21.02;;;10.07;;
40252;SDS011;25972;51.854;4.534;2023-09-30T04:58:09;18.63;;;10.45;;
40252;SDS011;25972;51.854;4.534;2023-09-30T05:00:36;21.00;;;10.40;;
40252;SDS011;25972;51.854;4.534;2023-09-30T05:03:02;18.58;;;9.80;;
40252;SDS011;25972;51.854;4.534;2023-09-30T05:05:31;21.75;;;11.18;;
40252;SDS011;25972;51.854;4.534;2023-09-30T05:07:57;18.65;;;10.55;;
40252;SDS011;25972;51.854;4.534;2023-09-30T05:10:24;16.75;;;9.52;;
40252;SDS011;25972;51.854;4.534;2023-09-30T05:12:50;19.90;;;10.23;;
40252;SDS011;25972;51.854;4.534;2023-09-30T05:15:20;17.23;;;10.35;;
40252;SDS011;25972;51.854;4.534;2023-09-30T05:17:47;19.42;;;9.95;;
40252;SDS011;25972;51.854;4.534;2023-09-30T05:20:14;20.83;;;10.18;;
40252;SDS011;25972;51.854;4.534;2023-09-30T05:22:43;17.70;;;10.43;;
40252;SDS011;25972;51.854;4.534;2023-09-30T05:25:14;19.77;;;10.70;;
40252;SDS011;25972;51.854;4.534;2023-09-30T05:27:41;20.23;;;11.02;;
40252;SDS011;25972;51.854;4.534;2023-09-30T05:30:08;21.85;;;10.52;;
40252;SDS011;25972;51.854;4.534;2023-09-30T05:32:36;23.58;;;11.05;;
40252;SDS011;25972;51.854;4.534;2023-09-30T05:35:04;24.17;;;11.52;;
40252;SDS011;25972;51.854;4.534;2023-09-30T05:37:31;19.13;;;10.98;;
40252;SDS011;25972;51.854;4.534;2023-09-30T05:39:58;22.77;;;11.25;;
40252;SDS011;25972;51.854;4.534;2023-09-30T05:42:24;27.35;;;10.85;;
40252;SDS011;25972;51.854;4.534;2023-09-30T05:44:50;21.33;;;11.88;;
40252;SDS011;25972;51.854;4.534;2023-09-30T05:47:18;25.17;;;12.05;;
40252;SDS011;25972;51.854;4.534;2023-09-30T05:49:44;21.83;;;12.07;;
40252;SDS011;25972;51.854;4.534;2023-09-30T05:52:10;26.05;;;13.13;;
40252;SDS011;25972;51.854;4.534;2023-09-30T05:54:38;24.30;;;12.13;;
40252;SDS011;25972;51.854;4.534;2023-09-30T05:57:05;26.88;;;11.30;;
40252;SDS011;25972;51.854;4.534;2023-09-30T05:59:31;24.02;;;12.48;;
40252;SDS011;25972;51.854;4.534;2023-09-30T06:01:58;23.02;;;12.38;;
40252;SDS011;25972;51.854;4.534;2023-09-30T06:04:24;23.38;;;11.80;;
40252;SDS011;25972;51.854;4.534;2023-09-30T06:06:50;30.67;;;13.38;;
40252;SDS011;25972;51.854;4.534;2023-09-30T06:09:17;25.40;;;13.55;;
40252;SDS011;25972;51.854;4.534;2023-09-30T06:11:43;28.60;;;13.18;;
40252;SDS011;25972;51.854;4.534;2023-09-30T06:14:10;32.92;;;13.95;;
40252;SDS011;25972;51.854;4.534;2023-09-30T06:16:36;26.23;;;13.35;;
40252;SDS011;25972;51.854;4.534;2023-09-30T06:19:03;28.00;;;13.93;;
40252;SDS011;25972;51.854;4.534;2023-09-30T06:21:29;27.33;;;13.98;;
40252;SDS011;25972;51.854;4.534;2023-09-30T06:23:56;25.33;;;13.77;;
40252;SDS011;25972;51.854;4.534;2023-09-30T06:26:22;28.52;;;15.10;;
40252;SDS011;25972;51.854;4.534;2023-09-30T06:28:50;27.63;;;14.02;;
40252;SDS011;25972;51.854;4.534;2023-09-30T06:31:20;28.10;;;14.82;;
40252;SDS011;25972;51.854;4.534;2023-09-30T06:33:46;30.77;;;14.05;;
40252;SDS011;25972;51.854;4.534;2023-09-30T06:36:12;27.02;;;15.13;;
40252;SDS011;25972;51.854;4.534;2023-09-30T06:38:39;28.83;;;14.52;;
40252;SDS011;25972;51.854;4.534;2023-09-30T06:41:07;32.45;;;14.95;;
40252;SDS011;25972;51.854;4.534;2023-09-30T06:43:33;33.20;;;15.48;;
40252;SDS011;25972;51.854;4.534;2023-09-30T06:46:05;26.58;;;15.10;;
40252;SDS011;25972;51.854;4.534;2023-09-30T06:48:34;27.98;;;14.38;;
40252;SDS011;25972;51.854;4.534;2023-09-30T06:51:00;35.97;;;14.30;;
40252;SDS011;25972;51.854;4.534;2023-09-30T06:53:27;34.05;;;16.33;;
40252;SDS011;25972;51.854;4.534;2023-09-30T06:55:53;28.10;;;15.80;;
40252;SDS011;25972;51.854;4.534;2023-09-30T06:58:19;36.72;;;16.67;;
40252;SDS011;25972;51.854;4.534;2023-09-30T07:00:48;31.17;;;16.75;;
40252;SDS011;25972;51.854;4.534;2023-09-30T07:03:15;31.42;;;16.88;;
40252;SDS011;25972;51.854;4.534;2023-09-30T07:05:43;29.42;;;15.13;;
40252;SDS011;25972;51.854;4.534;2023-09-30T07:08:09;31.40;;;16.20;;
40252;SDS011;25972;51.854;4.534;2023-09-30T07:10:35;31.95;;;15.65;;
40252;SDS011;25972;51.854;4.534;2023-09-30T07:13:02;32.58;;;16.40;;
40252;SDS011;25972;51.854;4.534;2023-09-30T07:15:28;29.20;;;16.08;;
40252;SDS011;25972;51.854;4.534;2023-09-30T07:17:54;33.33;;;16.38;;
40252;SDS011;25972;51.854;4.534;2023-09-30T07:20:21;29.38;;;15.93;;
40252;SDS011;25972;51.854;4.534;2023-09-30T07:22:49;34.83;;;16.42;;
40252;SDS011;25972;51.854;4.534;2023-09-30T07:25:15;32.65;;;17.40;;
40252;SDS011;25972;51.854;4.534;2023-09-30T07:27:42;29.08;;;16.55;;
40252;SDS011;25972;51.854;4.534;2023-09-30T07:30:08;27.75;;;16.58;;
40252;SDS011;25972;51.854;4.534;2023-09-30T07:32:37;31.05;;;16.65;;
40252;SDS011;25972;51.854;4.534;2023-09-30T07:35:03;28.80;;;16.00;;
40252;SDS011;25972;51.854;4.534;2023-09-30T07:37:30;32.63;;;16.75;;
40252;SDS011;25972;51.854;4.534;2023-09-30T07:39:57;38.03;;;17.42;;
40252;SDS011;25972;51.854;4.534;2023-09-30T07:42:23;34.05;;;17.00;;
40252;SDS011;25972;51.854;4.534;2023-09-30T07:44:49;32.47;;;17.10;;
40252;SDS011;25972;51.854;4.534;2023-09-30T07:47:16;31.45;;;17.63;;
40252;SDS011;25972;51.854;4.534;2023-09-30T07:49:42;36.58;;;18.88;;
40252;SDS011;25972;51.854;4.534;2023-09-30T07:52:08;34.25;;;16.58;;
40252;SDS011;25972;51.854;4.534;2023-09-30T07:54:35;30.02;;;17.02;;
40252;SDS011;25972;51.854;4.534;2023-09-30T07:57:03;31.02;;;16.42;;
40252;SDS011;25972;51.854;4.534;2023-09-30T07:59:29;34.28;;;18.38;;
40252;SDS011;25972;51.854;4.534;2023-09-30T08:01:55;31.20;;;18.02;;
40252;SDS011;25972;51.854;4.534;2023-09-30T08:04:22;28.25;;;16.38;;
40252;SDS011;25972;51.854;4.534;2023-09-30T08:06:48;29.23;;;16.50;;
40252;SDS011;25972;51.854;4.534;2023-09-30T08:09:14;30.45;;;16.67;;
40252;SDS011;25972;51.854;4.534;2023-09-30T08:11:40;25.50;;;15.85;;
40252;SDS011;25972;51.854;4.534;2023-09-30T08:14:08;33.58;;;16.45;;
40252;SDS011;25972;51.854;4.534;2023-09-30T08:16:34;26.00;;;15.50;;
40252;SDS011;25972;51.854;4.534;2023-09-30T08:19:00;26.80;;;14.40;;
40252;SDS011;25972;51.854;4.534;2023-09-30T08:21:26;23.88;;;14.02;;
40252;SDS011;25972;51.854;4.534;2023-09-30T08:23:53;22.65;;;13.77;;
40252;SDS011;25972;51.854;4.534;2023-09-30T08:26:19;21.65;;;12.02;;
40252;SDS011;25972;51.854;4.534;2023-09-30T08:28:45;18.00;;;12.52;;
40252;SDS011;25972;51.854;4.534;2023-09-30T08:31:13;21.08;;;13.05;;
40252;SDS011;25972;51.854;4.534;2023-09-30T08:33:39;21.15;;;12.45;;
40252;SDS011;25972;51.854;4.534;2023-09-30T08:36:06;21.55;;;12.65;;
40252;SDS011;25972;51.854;4.534;2023-09-30T08:38:33;18.80;;;11.52;;
40252;SDS011;25972;51.854;4.534;2023-09-30T08:41:00;24.42;;;12.02;;
40252;SDS011;25972;51.854;4.534;2023-09-30T08:43:27;19.55;;;11.73;;
40252;SDS011;25972;51.854;4.534;2023-09-30T08:45:56;18.88;;;10.80;;
40252;SDS011;25972;51.854;4.534;2023-09-30T08:48:24;17.25;;;11.65;;
40252;SDS011;25972;51.854;4.534;2023-09-30T08:50:52;19.60;;;11.45;;
40252;SDS011;25972;51.854;4.534;2023-09-30T08:53:23;21.38;;;11.55;;
40252;SDS011;25972;51.854;4.534;2023-09-30T08:55:50;16.88;;;11.07;;
40252;SDS011;25972;51.854;4.534;2023-09-30T08:58:22;15.83;;;11.50;;
40252;SDS011;25972;51.854;4.534;2023-09-30T09:00:50;20.45;;;11.45;;
40252;SDS011;25972;51.854;4.534;2023-09-30T09:03:18;18.40;;;11.80;;
40252;SDS011;25972;51.854;4.534;2023-09-30T09:05:46;16.88;;;11.95;;
40252;SDS011;25972;51.854;4.534;2023-09-30T09:08:12;15.18;;;11.05;;
40252;SDS011;25972;51.854;4.534;2023-09-30T09:10:45;17.73;;;11.43;;
40252;SDS011;25972;51.854;4.534;2023-09-30T09:13:21;14.60;;;10.95;;
40252;SDS011;25972;51.854;4.534;2023-09-30T09:15:47;16.65;;;10.57;;
40252;SDS011;25972;51.854;4.534;2023-09-30T09:18:14;16.90;;;10.75;;
40252;SDS011;25972;51.854;4.534;2023-09-30T09:21:08;15.48;;;11.23;;
40252;SDS011;25972;51.854;4.534;2023-09-30T09:23:38;18.98;;;12.25;;
40252;SDS011;25972;51.854;4.534;2023-09-30T09:26:05;17.90;;;12.13;;
40252;SDS011;25972;51.854;4.534;2023-09-30T09:28:36;18.33;;;11.45;;
40252;SDS011;25972;51.854;4.534;2023-09-30T09:31:18;12.88;;;10.68;;
40252;SDS011;25972;51.854;4.534;2023-09-30T09:33:46;17.35;;;11.90;;
40252;SDS011;25972;51.854;4.534;2023-09-30T09:36:14;14.13;;;10.38;;
40252;SDS011;25972;51.854;4.534;2023-09-30T09:38:43;17.02;;;10.43;;
40252;SDS011;25972;51.854;4.534;2023-09-30T09:41:09;18.80;;;10.25;;
40252;SDS011;25972;51.854;4.534;2023-09-30T09:43:36;14.30;;;10.30;;
40252;SDS011;25972;51.854;4.534;2023-09-30T09:46:03;17.73;;;10.75;;
40252;SDS011;25972;51.854;4.534;2023-09-30T09:48:32;16.52;;;10.32;;
40252;SDS011;25972;51.854;4.534;2023-09-30T09:50:59;15.48;;;10.38;;
40252;SDS011;25972;51.854;4.534;2023-09-30T09:53:29;13.45;;;10.23;;
40252;SDS011;25972;51.854;4.534;2023-09-30T09:55:56;12.75;;;10.70;;
40252;SDS011;25972;51.854;4.534;2023-09-30T09:58:24;13.38;;;10.80;;
40252;SDS011;25972;51.854;4.534;2023-09-30T10:00:52;14.30;;;11.38;;
40252;SDS011;25972;51.854;4.534;2023-09-30T10:03:18;16.75;;;11.82;;
40252;SDS011;25972;51.854;4.534;2023-09-30T10:05:44;16.52;;;11.77;;
40252;SDS011;25972;51.854;4.534;2023-09-30T10:08:13;14.77;;;10.82;;
40252;SDS011;25972;51.854;4.534;2023-09-30T10:10:44;16.30;;;12.13;;
40252;SDS011;25972;51.854;4.534;2023-09-30T10:19:11;18.40;;;10.65;;
40252;SDS011;25972;51.854;4.534;2023-09-30T10:21:38;18.20;;;11.25;;
40252;SDS011;25972;51.854;4.534;2023-09-30T10:30:08;23.67;;;11.85;;
40252;SDS011;25972;51.854;4.534;2023-09-30T10:35:46;21.42;;;11.60;;
40252;SDS011;25972;51.854;4.534;2023-09-30T10:41:06;22.63;;;11.70;;
40252;SDS011;25972;51.854;4.534;2023-09-30T10:43:34;14.10;;;10.30;;
40252;SDS011;25972;51.854;4.534;2023-09-30T10:46:03;14.52;;;10.40;;
40252;SDS011;25972;51.854;4.534;2023-09-30T10:48:35;15.35;;;10.00;;
40252;SDS011;25972;51.854;4.534;2023-09-30T10:51:12;14.27;;;10.23;;
40252;SDS011;25972;51.854;4.534;2023-09-30T10:53:41;13.45;;;9.40;;
40252;SDS011;25972;51.854;4.534;2023-09-30T10:56:09;13.43;;;9.10;;
40252;SDS011;25972;51.854;4.534;2023-09-30T10:58:38;15.05;;;8.77;;
40252;SDS011;25972;51.854;4.534;2023-09-30T11:01:09;17.67;;;8.57;;
40252;SDS011;25972;51.854;4.534;2023-09-30T11:03:36;15.35;;;9.13;;
40252;SDS011;25972;51.854;4.534;2023-09-30T11:06:02;18.67;;;8.32;;
40252;SDS011;25972;51.854;4.534;2023-09-30T11:08:29;14.48;;;8.18;;
40252;SDS011;25972;51.854;4.534;2023-09-30T11:10:55;13.35;;;7.50;;
40252;SDS011;25972;51.854;4.534;2023-09-30T11:13:22;15.45;;;7.15;;
40252;SDS011;25972;51.854;4.534;2023-09-30T11:15:48;13.07;;;8.52;;
40252;SDS011;25972;51.854;4.534;2023-09-30T11:18:28;12.27;;;7.93;;
40252;SDS011;25972;51.854;4.534;2023-09-30T11:21:02;13.90;;;8.40;;
40252;SDS011;25972;51.854;4.534;2023-09-30T11:23:33;13.57;;;8.15;;
40252;SDS011;25972;51.854;4.534;2023-09-30T11:26:00;9.98;;;7.25;;
40252;SDS011;25972;51.854;4.534;2023-09-30T11:28:34;13.65;;;7.80;;
40252;SDS011;25972;51.854;4.534;2023-09-30T11:31:02;15.77;;;8.00;;
40252;SDS011;25972;51.854;4.534;2023-09-30T11:33:30;14.48;;;7.95;;
40252;SDS011;25972;51.854;4.534;2023-09-30T11:35:57;13.45;;;7.55;;
40252;SDS011;25972;51.854;4.534;2023-09-30T11:38:26;11.13;;;7.95;;
40252;SDS011;25972;51.854;4.534;2023-09-30T11:40:59;18.42;;;8.27;;
40252;SDS011;25972;51.854;4.534;2023-09-30T11:43:28;17.63;;;9.55;;
40252;SDS011;25972;51.854;4.534;2023-09-30T11:46:03;21.27;;;8.00;;
40252;SDS011;25972;51.854;4.534;2023-09-30T11:48:32;13.82;;;8.40;;
40252;SDS011;25972;51.854;4.534;2023-09-30T11:50:58;10.68;;;6.45;;
40252;SDS011;25972;51.854;4.534;2023-09-30T11:53:28;11.48;;;6.28;;
40252;SDS011;25972;51.854;4.534;2023-09-30T11:55:55;12.13;;;6.03;;
40252;SDS011;25972;51.854;4.534;2023-09-30T11:58:23;10.52;;;5.82;;
40252;SDS011;25972;51.854;4.534;2023-09-30T12:00:52;13.48;;;6.32;;
40252;SDS011;25972;51.854;4.534;2023-09-30T12:03:19;10.98;;;5.93;;
40252;SDS011;25972;51.854;4.534;2023-09-30T12:05:47;9.70;;;5.65;;
40252;SDS011;25972;51.854;4.534;2023-09-30T12:08:13;14.38;;;6.05;;
40252;SDS011;25972;51.854;4.534;2023-09-30T12:10:39;13.82;;;5.68;;
40252;SDS011;25972;51.854;4.534;2023-09-30T12:13:05;10.98;;;5.78;;
40252;SDS011;25972;51.854;4.534;2023-09-30T12:15:31;10.48;;;5.68;;
40252;SDS011;25972;51.854;4.534;2023-09-30T12:17:57;8.55;;;4.95;;
40252;SDS011;25972;51.854;4.534;2023-09-30T12:20:23;9.82;;;5.00;;
40252;SDS011;25972;51.854;4.534;2023-09-30T12:22:51;10.35;;;4.90;;
40252;SDS011;25972;51.854;4.534;2023-09-30T12:25:19;11.20;;;5.60;;
40252;SDS011;25972;51.854;4.534;2023-09-30T12:27:47;10.63;;;4.93;;
40252;SDS011;25972;51.854;4.534;2023-09-30T12:30:13;12.25;;;5.32;;
40252;SDS011;25972;51.854;4.534;2023-09-30T12:32:39;9.80;;;4.78;;
40252;SDS011;25972;51.854;4.534;2023-09-30T12:35:06;12.57;;;5.00;;
40252;SDS011;25972;51.854;4.534;2023-09-30T12:37:32;13.48;;;5.25;;
40252;SDS011;25972;51.854;4.534;2023-09-30T12:40:00;11.40;;;5.28;;
40252;SDS011;25972;51.854;4.534;2023-09-30T12:42:25;15.95;;;4.90;;
40252;SDS011;25972;51.854;4.534;2023-09-30T12:44:53;12.25;;;5.40;;
40252;SDS011;25972;51.854;4.534;2023-09-30T12:47:19;10.55;;;5.53;;
40252;SDS011;25972;51.854;4.534;2023-09-30T12:49:45;13.48;;;4.95;;
40252;SDS011;25972;51.854;4.534;2023-09-30T12:52:11;10.18;;;4.57;;
40252;SDS011;25972;51.854;4.534;2023-09-30T12:54:37;14.75;;;5.45;;
40252;SDS011;25972;51.854;4.534;2023-09-30T12:57:06;12.35;;;4.72;;
40252;SDS011;25972;51.854;4.534;2023-09-30T12:59:32;12.18;;;5.30;;
40252;SDS011;25972;51.854;4.534;2023-09-30T13:01:59;11.18;;;4.57;;
40252;SDS011;25972;51.854;4.534;2023-09-30T13:04:25;17.65;;;5.35;;
40252;SDS011;25972;51.854;4.534;2023-09-30T13:06:53;10.32;;;4.38;;
40252;SDS011;25972;51.854;4.534;2023-09-30T13:09:20;13.10;;;5.70;;
40252;SDS011;25972;51.854;4.534;2023-09-30T13:11:46;13.10;;;5.20;;
40252;SDS011;25972;51.854;4.534;2023-09-30T13:14:14;18.35;;;5.18;;
40252;SDS011;25972;51.854;4.534;2023-09-30T13:16:40;16.27;;;5.28;;
40252;SDS011;25972;51.854;4.534;2023-09-30T13:19:06;12.77;;;4.53;;
40252;SDS011;25972;51.854;4.534;2023-09-30T13:21:32;11.55;;;4.85;;
40252;SDS011;25972;51.854;4.534;2023-09-30T13:23:58;11.18;;;4.28;;
40252;SDS011;25972;51.854;4.534;2023-09-30T13:26:24;10.13;;;4.13;;
40252;SDS011;25972;51.854;4.534;2023-09-30T13:28:50;10.35;;;3.83;;
40252;SDS011;25972;51.854;4.534;2023-09-30T13:31:18;12.68;;;4.15;;
40252;SDS011;25972;51.854;4.534;2023-09-30T13:33:44;12.52;;;4.50;;
40252;SDS011;25972;51.854;4.534;2023-09-30T13:36:11;7.72;;;3.85;;
40252;SDS011;25972;51.854;4.534;2023-09-30T13:38:38;14.95;;;3.90;;
40252;SDS011;25972;51.854;4.534;2023-09-30T13:41:04;8.30;;;4.18;;
40252;SDS011;25972;51.854;4.534;2023-09-30T13:43:30;7.75;;;3.90;;
40252;SDS011;25972;51.854;4.534;2023-09-30T13:45:56;8.15;;;3.60;;
40252;SDS011;25972;51.854;4.534;2023-09-30T13:48:23;11.77;;;3.85;;
40252;SDS011;25972;51.854;4.534;2023-09-30T13:50:50;7.07;;;3.80;;
40252;SDS011;25972;51.854;4.534;2023-09-30T13:53:17;10.48;;;4.22;;
40252;SDS011;25972;51.854;4.534;2023-09-30T13:55:43;6.43;;;3.10;;
40252;SDS011;25972;51.854;4.534;2023-09-30T13:58:10;8.98;;;3.88;;
40252;SDS011;25972;51.854;4.534;2023-09-30T14:00:37;11.80;;;4.07;;
40252;SDS011;25972;51.854;4.534;2023-09-30T14:03:03;10.55;;;3.45;;
40252;SDS011;25972;51.854;4.534;2023-09-30T14:05:31;7.60;;;3.33;;
40252;SDS011;25972;51.854;4.534;2023-09-30T14:07:57;9.57;;;3.55;;
40252;SDS011;25972;51.854;4.534;2023-09-30T14:10:23;8.65;;;3.45;;
40252;SDS011;25972;51.854;4.534;2023-09-30T14:12:50;9.40;;;3.50;;
40252;SDS011;25972;51.854;4.534;2023-09-30T14:15:16;5.70;;;3.65;;
40252;SDS011;25972;51.854;4.534;2023-09-30T14:17:42;6.20;;;3.33;;
40252;SDS011;25972;51.854;4.534;2023-09-30T14:20:17;7.40;;;3.47;;
40252;SDS011;25972;51.854;4.534;2023-09-30T14:22:44;7.47;;;3.40;;
40252;SDS011;25972;51.854;4.534;2023-09-30T14:25:11;8.15;;;3.40;;
40252;SDS011;25972;51.854;4.534;2023-09-30T14:27:38;7.70;;;3.65;;
40252;SDS011;25972;51.854;4.534;2023-09-30T14:30:05;8.10;;;3.85;;
40252;SDS011;25972;51.854;4.534;2023-09-30T14:32:33;8.38;;;3.55;;
40252;SDS011;25972;51.854;4.534;2023-09-30T14:34:59;6.20;;;3.10;;
40252;SDS011;25972;51.854;4.534;2023-09-30T14:37:25;9.05;;;3.40;;
40252;SDS011;25972;51.854;4.534;2023-09-30T14:39:54;10.00;;;3.63;;
40252;SDS011;25972;51.854;4.534;2023-09-30T14:42:20;8.02;;;3.58;;
40252;SDS011;25972;51.854;4.534;2023-09-30T14:44:46;8.20;;;3.72;;
40252;SDS011;25972;51.854;4.534;2023-09-30T14:47:12;11.63;;;3.70;;
40252;SDS011;25972;51.854;4.534;2023-09-30T14:49:38;8.57;;;3.72;;